Time;durP1;ratioP1;P1;durP2;ratioP2;P2;SDS_P1;SDS_P2;PMS_P1;PMS_P2;Temp;Humidity;BMP_temperature;BMP_pressure;BME280_temperature;BME280_humidity;BME280_pressure;Samples;Min_cycle;Max_cycle;Signal;HPM_P1;HPM_P2
2023/06/29 00:00:06;;;;;;;8.17;4.40;;;;;;;17.30;100.00;101818.38;7389942;19;21145;-38
2023/06/29 00:02:35;;;;;;;14.63;6.00;;;;;;;17.35;100.00;101819.41;7365970;19;20974;-39
2023/06/29 00:05:05;;;;;;;14.60;7.63;;;;;;;17.31;100.00;101809.69;7389867;19;20398;-40
2023/06/29 00:07:35;;;;;;;10.90;5.63;;;;;;;17.30;100.00;101805.34;7367985;19;20446;-40
2023/06/29 00:10:05;;;;;;;7.27;4.40;;;;;;;17.30;100.00;101801.81;7390273;19;20417;-40
2023/06/29 00:12:35;;;;;;;8.60;4.90;;;;;;;17.30;100.00;101794.91;7367323;19;20452;-39
2023/06/29 00:15:08;;;;;;;8.00;5.00;;;;;;;17.30;100.00;101797.50;7389467;19;20433;-42
2023/06/29 00:17:38;;;;;;;7.40;4.50;;;;;;;17.29;100.00;101793.13;7365857;19;20402;-41
2023/06/29 00:20:12;;;;;;;7.40;4.77;;;;;;;17.27;100.00;101785.25;7387521;19;20782;-39
2023/06/29 00:22:47;;;;;;;8.90;4.50;;;;;;;17.27;100.00;101781.75;7363355;19;20462;-39
2023/06/29 00:25:19;;;;;;;11.00;5.53;;;;;;;17.25;100.00;101778.22;7388626;19;20405;-40
2023/06/29 00:27:48;;;;;;;9.53;5.43;;;;;;;17.27;100.00;101776.53;7365458;19;22768;-43
2023/06/29 00:30:21;;;;;;;10.03;5.47;;;;;;;17.29;100.00;101780.09;7387107;19;20415;-40
2023/06/29 00:32:51;;;;;;;9.53;4.80;;;;;;;17.30;100.00;101770.53;7362361;19;20993;-40
2023/06/29 00:35:21;;;;;;;11.60;5.40;;;;;;;17.28;100.00;101767.91;7388718;19;20403;-40
2023/06/29 00:37:50;;;;;;;9.83;4.87;;;;;;;17.28;100.00;101767.91;7359876;19;21003;-40
2023/06/29 00:40:20;;;;;;;9.50;5.00;;;;;;;17.23;100.00;101766.88;7387146;19;20433;-39
2023/06/29 00:42:49;;;;;;;9.47;5.13;;;;;;;17.21;100.00;101758.09;7363083;19;20416;-40
2023/06/29 00:45:22;;;;;;;12.33;5.70;;;;;;;17.21;100.00;101756.38;7387908;19;20424;-38
2023/06/29 00:47:51;;;;;;;9.13;5.03;;;;;;;17.19;100.00;101757.19;7363544;19;21413;-44
2023/06/29 00:50:21;;;;;;;9.27;5.63;;;;;;;17.16;100.00;101749.28;7386455;19;20403;-39
2023/06/29 00:52:51;;;;;;;9.10;5.47;;;;;;;17.18;100.00;101752.81;7361475;19;20438;-42
2023/06/29 00:55:21;;;;;;;11.90;6.40;;;;;;;17.17;100.00;101745.81;7388324;19;20524;-43
2023/06/29 00:57:50;;;;;;;11.87;5.70;;;;;;;17.17;100.00;101736.25;7362001;19;20435;-42
2023/06/29 01:00:23;;;;;;;8.40;5.03;;;;;;;17.17;100.00;101740.59;7386699;19;20421;-43
2023/06/29 01:02:53;;;;;;;8.40;4.67;;;;;;;17.13;100.00;101735.28;7361699;19;20423;-44
2023/06/29 01:05:23;;;;;;;8.90;4.73;;;;;;;17.14;100.00;101733.56;7388857;19;20435;-44
2023/06/29 01:07:58;;;;;;;8.33;5.20;;;;;;;17.12;100.00;101727.41;7359303;19;20412;-42
2023/06/29 01:10:30;;;;;;;7.80;5.83;;;;;;;17.09;100.00;101730.84;7386221;19;20402;-45
2023/06/29 01:13:01;;;;;;;15.00;6.40;;;;;;;17.09;100.00;101725.63;7360239;19;20514;-44
2023/06/29 01:15:33;;;;;;;10.37;6.17;;;;;;;17.08;100.00;101725.56;7390865;19;20761;-43
2023/06/29 01:18:03;;;;;;;9.23;5.60;;;;;;;17.07;100.00;101727.28;7365607;19;20416;-43
2023/06/29 01:20:33;;;;;;;10.40;5.27;;;;;;;17.06;100.00;101722.91;7396627;19;20411;-39
2023/06/29 01:23:10;;;;;;;10.80;5.33;;;;;;;17.03;100.00;101715.00;7361948;19;20403;-39
2023/06/29 01:25:44;;;;;;;7.13;4.30;;;;;;;17.01;100.00;101701.00;7393717;19;20403;-40
2023/06/29 01:28:14;;;;;;;8.00;5.60;;;;;;;17.05;100.00;101695.06;7367981;19;20433;-44
2023/06/29 01:30:49;;;;;;;10.37;6.20;;;;;;;17.02;100.00;101692.38;7395097;19;20419;-42
2023/06/29 01:33:21;;;;;;;12.00;5.73;;;;;;;17.04;100.00;101690.72;7365737;19;20431;-40
2023/06/29 01:35:52;;;;;;;8.43;5.40;;;;;;;17.06;100.00;101680.31;7395413;19;20500;-40
2023/06/29 01:38:26;;;;;;;10.43;5.87;;;;;;;17.05;100.00;101676.81;7370595;19;20494;-39
2023/06/29 01:41:00;;;;;;;9.40;6.30;;;;;;;17.04;100.00;101668.94;7394122;19;20411;-42
2023/06/29 01:43:30;;;;;;;8.50;6.60;;;;;;;17.03;100.00;101673.31;7367612;19;20423;-43
2023/06/29 01:46:00;;;;;;;8.90;6.63;;;;;;;17.03;100.00;101667.19;7393627;19;20946;-45
2023/06/29 01:48:30;;;;;;;11.53;6.30;;;;;;;17.05;100.00;101655.06;7368394;19;20419;-41
2023/06/29 01:50:59;;;;;;;13.20;6.60;;;;;;;17.04;100.00;101659.44;7395953;19;20739;-41
2023/06/29 01:53:30;;;;;;;10.47;7.10;;;;;;;17.05;100.00;101650.75;7368650;19;20469;-39
2023/06/29 01:56:04;;;;;;;13.60;7.90;;;;;;;17.03;100.00;101652.44;7394619;19;20415;-41
2023/06/29 01:58:33;;;;;;;11.00;7.80;;;;;;;17.03;100.00;101647.25;7368669;19;20443;-41
2023/06/29 02:01:03;;;;;;;12.73;8.43;;;;;;;17.04;100.00;101650.72;7394378;19;20487;-41
2023/06/29 02:03:32;;;;;;;15.07;8.10;;;;;;;17.04;100.00;101648.09;7363227;19;20423;-41
2023/06/29 02:06:02;;;;;;;15.03;8.97;;;;;;;17.02;100.00;101645.44;7393275;19;20407;-42
2023/06/29 02:08:32;;;;;;;13.70;9.30;;;;;;;16.99;100.00;101645.34;7368466;19;20514;-41
2023/06/29 02:11:04;;;;;;;12.93;8.13;;;;;;;16.98;100.00;101630.53;7393341;19;20407;-43
2023/06/29 02:13:34;;;;;;;12.07;8.17;;;;;;;16.99;100.00;101629.69;7367786;19;20416;-39
2023/06/29 02:16:03;;;;;;;13.77;8.77;;;;;;;16.97;100.00;101618.34;7393937;19;20440;-40
2023/06/29 02:18:33;;;;;;;13.57;9.60;;;;;;;16.93;100.00;101614.78;7368219;19;20997;-41
2023/06/29 02:21:03;;;;;;;14.70;10.10;;;;;;;16.93;100.00;101608.66;7395912;19;20495;-42
2023/06/29 02:23:32;;;;;;;14.33;8.47;;;;;;;16.92;100.00;101602.56;7367130;19;20423;-41
2023/06/29 02:26:05;;;;;;;13.37;9.97;;;;;;;16.92;100.00;101602.56;7394215;19;20478;-42
2023/06/29 02:28:34;;;;;;;17.87;11.37;;;;;;;16.91;100.00;101602.53;7368305;19;20423;-42
2023/06/29 02:31:04;;;;;;;18.23;11.50;;;;;;;16.90;100.00;101592.91;7393718;19;20429;-42
2023/06/29 02:33:34;;;;;;;20.67;10.43;;;;;;;16.90;100.00;101587.72;7367553;19;20795;-39
2023/06/29 02:36:03;;;;;;;12.17;9.20;;;;;;;16.90;100.00;101579.88;7393695;19;20483;-41
2023/06/29 02:38:33;;;;;;;14.60;9.30;;;;;;;16.88;100.00;101575.53;7367640;19;20979;-41
2023/06/29 02:41:05;;;;;;;14.43;9.97;;;;;;;16.86;100.00;101486.00;7393064;19;20771;-44
2023/06/29 02:43:35;;;;;;;16.07;9.33;;;;;;;16.85;100.00;101481.63;7367671;19;21022;-43
2023/06/29 02:46:04;;;;;;;17.67;11.80;;;;;;;16.84;100.00;101437.28;7393375;19;20479;-38
2023/06/29 02:48:34;;;;;;;16.77;10.80;;;;;;;16.85;100.00;101415.59;7365398;19;20419;-40
2023/06/29 02:51:05;;;;;;;17.03;11.70;;;;;;;16.85;100.00;101407.78;7395024;19;20482;-41
2023/06/29 02:53:35;;;;;;;14.57;10.40;;;;;;;16.83;100.00;101410.34;7366774;19;20505;-41
2023/06/29 02:56:07;;;;;;;13.83;10.30;;;;;;;16.82;100.00;101398.16;7392481;19;20415;-41
2023/06/29 02:58:36;;;;;;;18.20;12.40;;;;;;;16.83;100.00;101477.22;7368620;19;20431;-41
2023/06/29 03:01:06;;;;;;;20.87;13.50;;;;;;;16.82;100.00;101390.34;7396033;19;20418;-43
2023/06/29 03:03:36;;;;;;;20.33;13.23;;;;;;;16.81;100.00;101524.06;7365812;19;20847;-40
2023/06/29 03:06:06;;;;;;;18.93;13.93;;;;;;;16.82;100.00;101528.44;7394714;19;20411;-41
2023/06/29 03:08:35;;;;;;;21.73;14.60;;;;;;;16.79;100.00;101517.94;7362935;19;20427;-44
2023/06/29 03:11:08;;;;;;;19.60;14.27;;;;;;;16.81;100.00;101515.41;7393822;19;20407;-42
2023/06/29 03:13:37;;;;;;;18.87;12.83;;;;;;;16.82;100.00;101512.81;7368782;19;20494;-43
2023/06/29 03:16:09;;;;;;;21.90;15.23;;;;;;;16.80;100.00;101501.47;7394192;19;20824;-42
2023/06/29 03:18:39;;;;;;;22.63;14.20;;;;;;;16.81;100.00;101505.84;7363621;19;20870;-43
2023/06/29 03:21:09;;;;;;;28.73;19.00;;;;;;;16.79;100.00;101491.88;7392533;19;21125;-39
2023/06/29 03:23:47;;;;;;;30.97;18.60;;;;;;;16.79;100.00;101491.00;7362875;19;20423;-40
2023/06/29 03:26:19;;;;;;;25.60;16.70;;;;;;;16.79;100.00;101483.19;7394951;19;20407;-42
2023/06/29 03:28:48;;;;;;;31.00;18.37;;;;;;;16.78;100.00;101479.72;7364474;19;20868;-43
2023/06/29 03:31:18;;;;;;;27.00;18.40;;;;;;;16.77;100.00;101475.31;7393163;19;20412;-41
2023/06/29 03:33:48;;;;;;;27.90;19.13;;;;;;;16.76;100.00;101476.16;7360628;19;20423;-43
2023/06/29 03:36:19;;;;;;;30.30;18.30;;;;;;;16.78;100.00;101463.19;7392911;19;20408;-41
2023/06/29 03:38:48;;;;;;;26.87;19.47;;;;;;;16.76;100.00;101455.31;7363488;19;20514;-41
2023/06/29 03:41:20;;;;;;;34.43;20.30;;;;;;;16.74;100.00;101455.28;7392671;19;20411;-39
2023/06/29 03:43:50;;;;;;;30.93;20.70;;;;;;;16.74;100.00;101457.91;7358686;19;20423;-42
2023/06/29 03:46:20;;;;;;;30.57;21.27;;;;;;;16.72;100.00;101453.50;7394613;19;20388;-40
2023/06/29 03:48:49;;;;;;;31.90;21.90;;;;;;;16.76;100.00;101439.69;7362462;19;20436;-39
2023/06/29 03:51:19;;;;;;;34.33;22.57;;;;;;;16.77;100.00;101435.38;7392573;19;20423;-41
2023/06/29 03:53:49;;;;;;;33.70;24.13;;;;;;;16.76;100.00;101431.88;7361041;19;20514;-41
2023/06/29 03:56:21;;;;;;;29.53;21.37;;;;;;;16.81;100.00;101429.41;7392093;19;21002;-40
2023/06/29 03:58:50;;;;;;;33.93;23.73;;;;;;;16.80;100.00;101431.13;7361771;19;20427;-39
2023/06/29 04:01:20;;;;;;;37.40;23.73;;;;;;;16.77;100.00;101412.78;7393667;19;20407;-45
2023/06/29 04:03:49;;;;;;;41.27;24.40;;;;;;;16.76;100.00;101405.81;7363509;19;20518;-39
2023/06/29 04:06:19;;;;;;;38.40;26.07;;;;;;;16.78;100.00;101411.06;7391869;19;20442;-41
2023/06/29 04:08:49;;;;;;;35.50;23.60;;;;;;;16.78;100.00;101405.84;7366068;19;20538;-40
2023/06/29 04:11:21;;;;;;;36.30;23.90;;;;;;;16.82;100.00;101392.06;7392187;19;20406;-43
2023/06/29 04:13:50;;;;;;;34.30;23.30;;;;;;;16.82;100.00;101392.94;7365333;19;20439;-41
2023/06/29 04:16:20;;;;;;;37.13;25.57;;;;;;;16.84;100.00;101391.28;7393755;19;20414;-40
2023/06/29 04:18:50;;;;;;;34.87;25.10;;;;;;;16.86;100.00;101379.16;7366473;19;20423;-42
2023/06/29 04:21:19;;;;;;;36.50;26.10;;;;;;;16.82;100.00;101385.13;7391426;19;20416;-39
2023/06/29 04:23:49;;;;;;;38.03;26.43;;;;;;;16.87;100.00;101375.72;7366170;19;20584;-39
2023/06/29 04:26:27;;;;;;;42.70;26.67;;;;;;;16.93;100.00;101372.41;7391859;19;20772;-38
2023/06/29 04:29:02;;;;;;;40.33;29.50;;;;;;;16.90;100.00;101371.41;7361859;19;20429;-43
2023/06/29 04:31:32;;;;;;;39.73;26.40;;;;;;;16.89;100.00;101373.16;7391423;19;20438;-41
2023/06/29 04:34:02;;;;;;;41.57;28.07;;;;;;;16.93;100.00;101374.09;7359597;19;20428;-44
2023/06/29 04:36:32;;;;;;;35.23;25.87;;;;;;;16.95;100.00;101357.66;7391396;19;20411;-39
2023/06/29 04:39:03;;;;;;;39.30;26.50;;;;;;;16.97;100.00;101360.31;7363092;19;20431;-39
2023/06/29 04:41:36;;;;;;;41.13;27.50;;;;;;;16.93;100.00;101350.66;7392509;19;20457;-40
2023/06/29 04:44:08;;;;;;;43.50;27.50;;;;;;;16.98;100.00;101351.66;7361397;19;20427;-39
2023/06/29 04:46:39;;;;;;;39.03;26.60;;;;;;;17.00;100.00;101342.13;7391286;19;20511;-44
2023/06/29 04:49:09;;;;;;;41.83;28.90;;;;;;;17.03;100.00;101344.88;7366868;19;20455;-41
2023/06/29 04:51:39;;;;;;;53.07;28.17;;;;;;;17.05;100.00;101339.66;7400860;19;20431;-41
2023/06/29 04:54:09;;;;;;;41.50;25.33;;;;;;;17.07;100.00;101346.69;7370058;19;20455;-42
2023/06/29 04:56:41;;;;;;;42.83;27.73;;;;;;;17.08;100.00;101332.81;7400309;19;20482;-43
2023/06/29 04:59:11;;;;;;;41.80;28.17;;;;;;;17.12;100.00;101329.44;7371574;19;20504;-39
2023/06/29 05:01:41;;;;;;;41.73;26.63;;;;;;;17.12;100.00;101332.03;7397599;19;20464;-41
2023/06/29 05:04:10;;;;;;;44.90;27.90;;;;;;;17.15;100.00;101336.44;7372409;19;20785;-40
2023/06/29 05:06:40;;;;;;;39.70;27.50;;;;;;;17.20;100.00;101352.19;7399624;19;20487;-39
2023/06/29 05:09:10;;;;;;;43.17;25.87;;;;;;;17.30;100.00;101361.09;7371976;19;20435;-39
2023/06/29 05:11:42;;;;;;;37.80;25.83;;;;;;;17.26;100.00;101358.44;7400180;19;20449;-42
2023/06/29 05:14:12;;;;;;;40.37;26.77;;;;;;;17.25;100.00;101381.88;7369422;19;20495;-39
2023/06/29 05:16:41;;;;;;;43.57;26.03;;;;;;;17.26;100.00;101388.84;7399979;19;20404;-43
2023/06/29 05:19:11;;;;;;;41.40;27.93;;;;;;;17.36;100.00;101383.00;7368562;19;20429;-41
2023/06/29 05:21:41;;;;;;;45.17;25.87;;;;;;;17.30;100.00;101385.47;7397426;19;20446;-40
2023/06/29 05:24:10;;;;;;;43.60;26.63;;;;;;;17.34;100.00;101387.28;7367838;19;20494;-40
2023/06/29 05:26:42;;;;;;;38.27;25.60;;;;;;;17.48;100.00;101386.75;7397351;19;20412;-45
2023/06/29 05:29:12;;;;;;;37.60;25.30;;;;;;;17.54;100.00;101394.72;7370457;19;21205;-42
2023/06/29 05:31:41;;;;;;;35.50;24.27;;;;;;;17.59;100.00;101398.28;7396889;19;20440;-39
2023/06/29 05:34:11;;;;;;;45.47;26.63;;;;;;;17.59;100.00;101392.22;7371650;19;20423;-42
2023/06/29 05:36:40;;;;;;;46.40;27.47;;;;;;;17.53;100.00;101404.25;7396185;19;21012;-39
2023/06/29 05:39:10;;;;;;;40.73;25.20;;;;;;;17.51;100.00;101405.06;7367200;19;20514;-42
2023/06/29 05:41:42;;;;;;;42.60;24.33;;;;;;;17.49;100.00;101402.41;7396464;19;20439;-40
2023/06/29 05:44:12;;;;;;;40.67;24.47;;;;;;;17.47;100.00;101405.84;7371367;19;20423;-41
2023/06/29 05:46:41;;;;;;;36.13;24.80;;;;;;;17.56;100.00;101393.03;7396321;19;20471;-40
2023/06/29 05:49:11;;;;;;;41.70;23.97;;;;;;;17.55;100.00;101399.09;7369400;19;20431;-42
2023/06/29 05:51:42;;;;;;;42.30;24.90;;;;;;;17.48;100.00;101405.03;7396470;19;20427;-43
2023/06/29 05:54:11;;;;;;;61.37;32.67;;;;;;;17.59;100.00;101411.34;7360960;19;20523;-41
2023/06/29 05:56:43;;;;;;;36.23;23.43;;;;;;;17.60;100.00;101415.75;7397997;19;20962;-39
2023/06/29 05:59:13;;;;;;;35.97;23.00;;;;;;;17.67;100.00;101417.63;7366437;19;20523;-38
2023/06/29 06:01:43;;;;;;;38.70;23.17;;;;;;;17.79;100.00;101416.16;7395434;19;20599;-40
2023/06/29 06:04:12;;;;;;;34.73;23.30;;;;;;;17.79;100.00;101421.38;7368741;19;21091;-43
2023/06/29 06:06:42;;;;;;;38.63;21.77;;;;;;;17.84;100.00;101418.88;7398391;19;20404;-41
2023/06/29 06:09:11;;;;;;;32.97;21.70;;;;;;;17.75;100.00;101432.59;7368496;19;20448;-42
2023/06/29 06:11:44;;;;;;;40.53;21.90;;;;;;;17.80;100.00;101433.56;7395956;19;20427;-40
2023/06/29 06:14:13;;;;;;;37.23;21.10;;;;;;;17.85;100.00;101436.28;7370584;19;20441;-44
2023/06/29 06:16:43;;;;;;;41.50;21.70;;;;;;;17.83;100.00;101440.59;7395976;19;20491;-44
2023/06/29 06:19:12;;;;;;;32.83;21.40;;;;;;;17.88;100.00;101447.66;7371298;19;20423;-45
2023/06/29 06:21:42;;;;;;;37.10;21.20;;;;;;;17.90;100.00;101439.88;7395550;19;20460;-43
2023/06/29 06:24:13;;;;;;;36.07;22.77;;;;;;;17.90;100.00;101434.66;7369920;19;20423;-42
2023/06/29 06:26:45;;;;;;;35.03;21.77;;;;;;;17.93;100.00;101440.81;7395639;19;20411;-40
2023/06/29 06:29:15;;;;;;;35.60;21.97;;;;;;;17.94;100.00;101437.38;7370359;19;20435;-42
2023/06/29 06:31:45;;;;;;;34.20;21.30;;;;;;;17.98;100.00;101442.63;7394751;19;20432;-43
2023/06/29 06:34:14;;;;;;;36.70;21.97;;;;;;;18.03;100.00;101441.00;7370293;19;20824;-43
2023/06/29 06:36:45;;;;;;;34.37;20.50;;;;;;;17.98;100.00;101446.16;7395548;19;20951;-43
2023/06/29 06:39:15;;;;;;;36.60;21.40;;;;;;;18.00;100.00;101443.56;7371188;19;20427;-42
2023/06/29 06:41:47;;;;;;;32.53;19.90;;;;;;;18.03;100.00;101441.00;7395750;19;20435;-45
2023/06/29 06:44:16;;;;;;;38.97;21.93;;;;;;;18.07;100.00;101438.56;7369708;19;20438;-42
2023/06/29 06:46:46;;;;;;;33.83;20.53;;;;;;;18.03;100.00;101444.53;7395684;19;20416;-40
2023/06/29 06:49:16;;;;;;;36.37;19.23;;;;;;;18.06;100.00;101442.00;7369946;19;20439;-42
2023/06/29 06:51:45;;;;;;;32.77;19.10;;;;;;;18.21;100.00;101446.66;7395006;19;20451;-41
2023/06/29 06:54:15;;;;;;;32.20;19.50;;;;;;;18.20;100.00;101438.81;7370042;19;20419;-42
2023/06/29 06:56:47;;;;;;;30.97;19.97;;;;;;;18.22;100.00;101445.81;7394913;19;20968;-41
2023/06/29 06:59:17;;;;;;;39.87;21.70;;;;;;;18.17;100.00;101447.47;7371351;19;20438;-41
2023/06/29 07:01:47;;;;;;;32.87;20.23;;;;;;;18.23;100.00;101449.31;7393586;19;21002;-40
2023/06/29 07:04:16;;;;;;;33.70;20.10;;;;;;;18.28;100.00;101452.03;7366593;19;20454;-41
2023/06/29 07:06:46;;;;;;;35.17;20.07;;;;;;;18.33;100.00;101460.84;7397353;19;20399;-40
2023/06/29 07:09:16;;;;;;;39.57;22.30;;;;;;;18.37;100.00;101460.06;7369693;19;20506;-42
2023/06/29 07:11:48;;;;;;;37.00;21.20;;;;;;;18.45;100.00;101455.88;7393888;19;20459;-45
2023/06/29 07:14:18;;;;;;;45.87;24.97;;;;;;;18.51;100.00;101499.50;7368833;19;20824;-40
2023/06/29 07:16:49;;;;;;;36.77;21.50;;;;;;;18.52;100.00;101492.56;7394345;19;20416;-45
2023/06/29 07:19:19;;;;;;;37.17;21.67;;;;;;;18.64;100.00;101482.34;7369073;19;20442;-39
2023/06/29 07:21:51;;;;;;;32.70;19.33;;;;;;;18.81;100.00;101468.75;7394103;19;20436;-40
2023/06/29 07:24:24;;;;;;;41.23;22.37;;;;;;;18.89;100.00;101469.75;7368799;19;20550;-42
2023/06/29 07:26:56;;;;;;;45.20;25.60;;;;;;;19.06;100.00;101477.09;7396210;19;20410;-40
2023/06/29 07:29:26;;;;;;;38.63;18.70;;;;;;;19.28;100.00;101483.56;7366565;19;20447;-42
2023/06/29 07:31:56;;;;;;;49.40;24.20;;;;;;;19.24;100.00;101485.25;7394713;19;21064;-41
2023/06/29 07:34:25;;;;;;;34.67;20.40;;;;;;;19.43;100.00;101502.13;7368678;19;21021;-42
2023/06/29 07:36:55;;;;;;;39.10;23.13;;;;;;;19.16;100.00;101511.25;7393013;19;20400;-42
2023/06/29 07:39:25;;;;;;;37.67;21.63;;;;;;;19.35;100.00;101518.53;7366462;19;20431;-41
2023/06/29 07:41:57;;;;;;;35.40;19.70;;;;;;;19.45;100.00;101515.25;7393723;19;20459;-43
2023/06/29 07:44:27;;;;;;;38.63;21.23;;;;;;;19.53;100.00;101524.09;7368502;19;20487;-41
2023/06/29 07:46:57;;;;;;;58.13;31.30;;;;;;;19.40;100.00;101522.13;7393171;19;20416;-43
2023/06/29 07:49:26;;;;;;;45.57;24.33;;;;;;;19.47;100.00;101529.22;7368111;19;20978;-40
2023/06/29 07:51:56;;;;;;;39.53;23.40;;;;;;;19.64;100.00;101537.34;7393028;19;20451;-41
2023/06/29 07:54:27;;;;;;;45.37;25.20;;;;;;;19.72;100.00;101533.97;7367707;19;20428;-42
2023/06/29 07:56:59;;;;;;;36.80;21.87;;;;;;;19.65;100.00;101552.19;7394353;19;20491;-47
2023/06/29 07:59:31;;;;;;;45.37;23.80;;;;;;;19.84;100.00;101497.50;7368737;19;20522;-41
2023/06/29 08:02:01;;;;;;;33.70;18.40;;;;;;;19.88;100.00;101558.69;7391269;19;20879;-43
2023/06/29 08:04:30;;;;;;;31.30;18.23;;;;;;;19.90;100.00;101556.97;7366855;19;20435;-40
2023/06/29 08:07:03;;;;;;;103.97;41.27;;;;;;;19.96;100.00;101575.44;7390735;19;20455;-39
2023/06/29 08:09:38;;;;;;;72.87;31.60;;;;;;;20.07;100.00;101562.50;7367524;19;20431;-42
2023/06/29 08:12:11;;;;;;;27.90;15.80;;;;;;;20.21;100.00;101554.84;7391943;19;21197;-41
2023/06/29 08:14:40;;;;;;;32.90;17.83;;;;;;;20.32;100.00;101534.91;7365688;19;20526;-42
2023/06/29 08:17:10;;;;;;;57.40;32.23;;;;;;;20.21;100.00;101586.28;7391400;19;20829;-41
2023/06/29 08:19:39;;;;;;;34.03;18.00;;;;;;;20.34;100.00;101569.88;7367388;19;20498;-39
2023/06/29 08:22:09;;;;;;;48.37;27.03;;;;;;;20.15;100.00;101549.50;7390908;19;20467;-43
2023/06/29 08:24:39;;;;;;;33.40;17.57;;;;;;;20.34;100.00;101535.81;7362070;19;21003;-43
2023/06/29 08:27:11;;;;;;;48.60;27.60;;;;;;;20.50;100.00;101541.25;7391014;19;20411;-41
2023/06/29 08:29:41;;;;;;;30.17;18.73;;;;;;;20.58;100.00;101539.63;7367095;19;20461;-40
2023/06/29 08:32:11;;;;;;;34.07;18.33;;;;;;;20.51;100.00;101562.25;7390299;19;20475;-40
2023/06/29 08:34:41;;;;;;;41.20;20.93;;;;;;;20.29;100.00;101537.47;7366406;19;20500;-44
2023/06/29 08:37:10;;;;;;;40.40;22.97;;;;;;;20.50;100.00;101551.72;7391153;19;20499;-37
2023/06/29 08:39:40;;;;;;;33.47;17.60;;;;;;;20.67;100.00;101572.03;7363650;19;20446;-40
2023/06/29 08:42:12;;;;;;;36.60;18.60;;;;;;;20.42;100.00;101558.63;7392216;19;20823;-44
2023/06/29 08:44:42;;;;;;;41.77;21.80;;;;;;;20.49;100.00;101565.69;7366067;19;20434;-40
2023/06/29 08:47:13;;;;;;;31.83;16.80;;;;;;;20.67;100.00;101519.63;7390589;19;20486;-40
2023/06/29 08:49:44;;;;;;;43.63;22.73;;;;;;;20.72;100.00;101515.31;7364773;19;20448;-39
2023/06/29 08:52:14;;;;;;;34.20;19.83;;;;;;;20.69;100.00;101499.53;7390505;19;20526;-41
2023/06/29 08:54:45;;;;;;;41.40;19.37;;;;;;;20.88;100.00;101485.78;7366649;19;20535;-41
2023/06/29 08:57:17;;;;;;;52.83;25.80;;;;;;;20.79;100.00;101464.69;7389990;19;20415;-43
2023/06/29 08:59:49;;;;;;;51.83;27.40;;;;;;;20.72;100.00;101455.00;7389789;19;20475;-41
2023/06/29 09:02:19;;;;;;;43.17;22.10;;;;;;;20.82;100.00;101451.59;7391625;19;20482;-43
2023/06/29 09:04:49;;;;;;;41.80;23.70;;;;;;;20.98;100.00;101467.53;7361495;19;20815;-42
2023/06/29 09:07:18;;;;;;;33.33;19.37;;;;;;;21.03;100.00;101421.25;7387893;19;20400;-42
2023/06/29 09:09:48;;;;;;;46.93;23.73;;;;;;;21.26;100.00;101423.16;7363360;19;20411;-46
2023/06/29 09:12:20;;;;;;;33.63;19.37;;;;;;;21.20;100.00;101402.13;7389075;19;20458;-40
2023/06/29 09:14:50;;;;;;;33.17;18.20;;;;;;;21.33;100.00;101403.97;7363995;19;20407;-42
2023/06/29 09:17:21;;;;;;;36.73;19.93;;;;;;;21.31;100.00;101384.72;7389054;19;20434;-39
2023/06/29 09:19:54;;;;;;;40.97;22.47;;;;;;;21.45;100.00;101362.06;7364845;19;20407;-41
2023/06/29 09:22:24;;;;;;;40.83;20.73;;;;;;;21.18;100.00;101366.28;7389217;19;20472;-42
2023/06/29 09:24:57;;;;;;;34.13;17.93;;;;;;;21.11;100.00;101367.09;7364425;19;20410;-42
2023/06/29 09:27:47;;;;;;;41.23;21.00;;;;;;;20.93;100.00;101361.72;7389813;19;20415;-42
2023/06/29 09:30:20;;;;;;;34.17;16.63;;;;;;;21.06;100.00;101357.47;7364022;19;20494;-40
2023/06/29 09:32:50;;;;;;;34.10;16.97;;;;;;;21.09;100.00;101353.09;7389454;19;20464;-40
2023/06/29 09:35:24;;;;;;;40.30;22.57;;;;;;;21.07;100.00;101351.34;7365135;19;20857;-43
2023/06/29 09:37:53;;;;;;;40.70;19.20;;;;;;;21.25;100.00;101347.94;7397098;19;20819;-42
2023/06/29 09:40:23;;;;;;;30.77;18.27;;;;;;;21.23;100.00;101334.81;7371198;19;20502;-42
2023/06/29 09:42:55;;;;;;;31.10;16.87;;;;;;;21.42;100.00;101330.56;7395844;19;20490;-40
2023/06/29 09:45:29;;;;;;;40.30;20.57;;;;;;;21.43;100.00;101302.59;7371686;19;20531;-46
2023/06/29 09:47:59;;;;;;;39.83;20.60;;;;;;;21.53;100.00;101256.28;7399583;19;20959;-41
2023/06/29 09:50:32;;;;;;;33.83;19.57;;;;;;;21.61;100.00;101224.78;7372620;19;20419;-41
2023/06/29 09:53:09;;;;;;;43.33;22.23;;;;;;;21.78;100.00;101180.25;7395576;19;20456;-42
2023/06/29 09:55:40;;;;;;;38.17;18.53;;;;;;;21.93;100.00;101169.75;7372869;19;20451;-41
2023/06/29 09:58:14;;;;;;;36.50;19.00;;;;;;;21.76;100.00;101147.84;7396173;19;20411;-40
2023/06/29 10:00:43;;;;;;;37.27;19.40;;;;;;;21.62;100.00;101153.03;7372901;19;20415;-43
2023/06/29 10:03:13;;;;;;;61.90;28.63;;;;;;;21.82;100.00;101156.63;7395453;19;20446;-44
2023/06/29 10:05:43;;;;;;;36.73;17.90;;;;;;;21.99;100.00;101130.34;7373034;19;21022;-40
2023/06/29 10:08:16;;;;;;;43.33;21.80;;;;;;;21.91;100.00;101087.47;7397341;19;20415;-41
2023/06/29 10:10:46;;;;;;;51.50;24.83;;;;;;;21.84;100.00;101083.09;7370776;19;20431;-43
2023/06/29 10:13:19;;;;;;;38.90;20.30;;;;;;;21.92;100.00;101106.72;7396708;19;20451;-40
2023/06/29 10:15:49;;;;;;;45.13;22.10;;;;;;;21.78;100.00;101044.56;7372227;19;20430;-40
2023/06/29 10:18:25;;;;;;;36.47;19.30;;;;;;;21.83;100.00;101041.94;7399738;19;20438;-40
2023/06/29 10:20:54;;;;;;;44.30;20.70;;;;;;;21.83;100.00;101020.91;7371288;19;20522;-40
2023/06/29 10:23:25;;;;;;;39.77;21.57;;;;;;;21.69;100.00;100995.56;7395280;19;20439;-40
2023/06/29 10:25:55;;;;;;;35.50;18.80;;;;;;;21.78;100.00;101012.19;7371633;19;20438;-40
2023/06/29 10:28:28;;;;;;;42.97;21.00;;;;;;;21.61;100.00;101018.28;7396780;19;20772;-42
2023/06/29 10:31:00;;;;;;;39.50;20.67;;;;;;;21.47;100.00;101015.66;7371045;19;20450;-40
2023/06/29 10:33:30;;;;;;;30.00;17.40;;;;;;;21.61;100.00;101031.41;7396240;19;20455;-40
2023/06/29 10:36:01;;;;;;;38.23;17.83;;;;;;;21.43;100.00;101017.41;7360843;19;20909;-39
2023/06/29 10:38:33;;;;;;;36.83;20.20;;;;;;;21.36;100.00;101035.75;7397253;19;20435;-43
2023/06/29 10:41:04;;;;;;;35.53;20.10;;;;;;;21.22;100.00;101064.59;7367664;19;20482;-40
2023/06/29 10:43:56;;;;;;;31.13;17.40;;;;;;;21.08;100.00;101069.81;7394795;19;20446;-39
2023/06/29 10:46:48;;;;;;;34.13;18.60;;;;;;;21.07;100.00;101102.16;7373310;19;20438;-42
2023/06/29 10:49:24;;;;;;;37.70;18.97;;;;;;;21.09;100.00;101095.16;7370977;19;20434;-41
2023/06/29 10:51:56;;;;;;;32.97;18.57;;;;;;;21.03;100.00;101073.28;7394921;19;20451;-40
2023/06/29 10:54:26;;;;;;;39.03;18.07;;;;;;;20.98;100.00;101066.28;7370077;19;20391;-40
2023/06/29 10:57:00;;;;;;;35.90;19.87;;;;;;;21.04;100.00;101066.31;7395488;19;20433;-42
2023/06/29 10:59:34;;;;;;;35.57;17.90;;;;;;;21.13;100.00;101050.56;7369348;19;20406;-41
2023/06/29 11:02:05;;;;;;;36.10;20.17;;;;;;;21.20;100.00;101035.75;7392322;19;20451;-39
2023/06/29 11:04:34;;;;;;;30.57;17.00;;;;;;;21.14;100.00;101014.75;7368637;19;20997;-41
2023/06/29 11:07:08;;;;;;;27.70;17.40;;;;;;;21.08;100.00;100994.63;7394078;19;20427;-41
2023/06/29 11:09:37;;;;;;;39.50;19.03;;;;;;;21.12;100.00;100991.13;7369372;19;20462;-46
2023/06/29 11:12:08;;;;;;;32.07;16.57;;;;;;;21.08;100.00;100957.91;7392906;19;20443;-41
2023/06/29 11:14:43;;;;;;;32.80;16.43;;;;;;;21.06;100.00;100937.81;7369004;19;20408;-41
2023/06/29 11:17:12;;;;;;;28.23;15.37;;;;;;;21.04;100.00;100919.44;7395178;19;20423;-44
2023/06/29 11:19:45;;;;;;;30.90;14.20;;;;;;;21.13;100.00;100919.44;7368819;19;20416;-40